METAR Data
IDs: Format: Raw Decoded Include TAF

Data at: 0157 UTC 25 Feb 2021

RJBD 250100Z 32003KT 270V020 CAVOK 11/M11 Q1024